sensor_id;sensor_type;location;lat;lon;timestamp;temperature;humidity
51867;DHT22;52862;52.504;13.480;2024-03-02T00:01:27;8.80;99.90
51867;DHT22;52862;52.504;13.480;2024-03-02T00:03:54;8.80;99.90
51867;DHT22;52862;52.504;13.480;2024-03-02T00:06:21;8.80;99.90
51867;DHT22;52862;52.504;13.480;2024-03-02T00:08:48;8.70;99.90
51867;DHT22;52862;52.504;13.480;2024-03-02T00:11:15;8.70;99.90
51867;DHT22;52862;52.504;13.480;2024-03-02T00:13:42;8.80;99.90
51867;DHT22;52862;52.504;13.480;2024-03-02T00:16:09;8.80;99.90
51867;DHT22;52862;52.504;13.480;2024-03-02T00:18:37;8.80;99.90
51867;DHT22;52862;52.504;13.480;2024-03-02T00:21:06;8.70;99.90
51867;DHT22;52862;52.504;13.480;2024-03-02T00:23:36;8.80;99.90
51867;DHT22;52862;52.504;13.480;2024-03-02T00:26:03;8.90;99.90
51867;DHT22;52862;52.504;13.480;2024-03-02T00:28:33;8.80;99.90
51867;DHT22;52862;52.504;13.480;2024-03-02T00:31:04;8.90;99.90
51867;DHT22;52862;52.504;13.480;2024-03-02T00:33:33;9.00;99.90
51867;DHT22;52862;52.504;13.480;2024-03-02T00:36:00;9.00;99.90
51867;DHT22;52862;52.504;13.480;2024-03-02T00:38:27;9.00;99.90
51867;DHT22;52862;52.504;13.480;2024-03-02T00:40:55;9.00;99.90
51867;DHT22;52862;52.504;13.480;2024-03-02T00:46:22;9.00;99.90
51867;DHT22;52862;52.504;13.480;2024-03-02T00:48:54;9.00;99.90
51867;DHT22;52862;52.504;13.480;2024-03-02T00:51:22;9.00;99.90
51867;DHT22;52862;52.504;13.480;2024-03-02T00:53:49;8.90;99.90
51867;DHT22;52862;52.504;13.480;2024-03-02T00:56:17;9.00;99.90
51867;DHT22;52862;52.504;13.480;2024-03-02T00:58:44;9.00;99.90
51867;DHT22;52862;52.504;13.480;2024-03-02T01:01:11;9.10;99.90
51867;DHT22;52862;52.504;13.480;2024-03-02T01:03:37;9.00;99.90
51867;DHT22;52862;52.504;13.480;2024-03-02T01:06:05;9.00;99.90
51867;DHT22;52862;52.504;13.480;2024-03-02T01:08:34;9.10;99.90
51867;DHT22;52862;52.504;13.480;2024-03-02T01:11:00;9.10;99.90
51867;DHT22;52862;52.504;13.480;2024-03-02T01:13:28;9.10;99.90
51867;DHT22;52862;52.504;13.480;2024-03-02T01:15:55;9.10;99.90
51867;DHT22;52862;52.504;13.480;2024-03-02T01:18:21;9.10;99.90
51867;DHT22;52862;52.504;13.480;2024-03-02T01:20:48;9.10;99.90
51867;DHT22;52862;52.504;13.480;2024-03-02T01:23:18;9.00;99.90
51867;DHT22;52862;52.504;13.480;2024-03-02T01:25:45;9.20;99.90
51867;DHT22;52862;52.504;13.480;2024-03-02T01:28:12;9.20;99.90
51867;DHT22;52862;52.504;13.480;2024-03-02T01:30:40;9.20;99.90
51867;DHT22;52862;52.504;13.480;2024-03-02T01:33:06;9.10;99.90
51867;DHT22;52862;52.504;13.480;2024-03-02T01:35:33;9.10;99.90
51867;DHT22;52862;52.504;13.480;2024-03-02T01:38:01;9.20;99.90
51867;DHT22;52862;52.504;13.480;2024-03-02T01:40:27;9.10;99.90
51867;DHT22;52862;52.504;13.480;2024-03-02T01:42:54;9.10;99.90
51867;DHT22;52862;52.504;13.480;2024-03-02T01:45:22;9.10;99.90
51867;DHT22;52862;52.504;13.480;2024-03-02T01:47:49;9.10;99.90
51867;DHT22;52862;52.504;13.480;2024-03-02T01:50:25;9.10;99.90
51867;DHT22;52862;52.504;13.480;2024-03-02T01:52:51;9.20;99.90
51867;DHT22;52862;52.504;13.480;2024-03-02T01:55:18;9.20;99.90
51867;DHT22;52862;52.504;13.480;2024-03-02T01:57:45;9.20;99.90
51867;DHT22;52862;52.504;13.480;2024-03-02T02:00:14;9.20;99.90
51867;DHT22;52862;52.504;13.480;2024-03-02T02:02:41;9.10;99.90
51867;DHT22;52862;52.504;13.480;2024-03-02T02:05:09;9.20;99.90
51867;DHT22;52862;52.504;13.480;2024-03-02T02:07:36;9.10;99.90
51867;DHT22;52862;52.504;13.480;2024-03-02T02:10:03;9.10;99.90
51867;DHT22;52862;52.504;13.480;2024-03-02T02:12:30;9.10;99.90
51867;DHT22;52862;52.504;13.480;2024-03-02T02:14:56;9.10;99.90
51867;DHT22;52862;52.504;13.480;2024-03-02T02:17:23;9.10;99.90
51867;DHT22;52862;52.504;13.480;2024-03-02T02:19:50;9.10;99.90
51867;DHT22;52862;52.504;13.480;2024-03-02T02:22:17;8.90;99.90
51867;DHT22;52862;52.504;13.480;2024-03-02T02:24:44;9.00;99.90
51867;DHT22;52862;52.504;13.480;2024-03-02T02:27:11;9.30;99.90
51867;DHT22;52862;52.504;13.480;2024-03-02T02:29:39;9.00;99.90
51867;DHT22;52862;52.504;13.480;2024-03-02T02:32:05;9.10;99.90
51867;DHT22;52862;52.504;13.480;2024-03-02T02:34:32;9.10;99.90
51867;DHT22;52862;52.504;13.480;2024-03-02T02:36:59;9.00;99.90
51867;DHT22;52862;52.504;13.480;2024-03-02T02:39:27;9.10;99.90
51867;DHT22;52862;52.504;13.480;2024-03-02T02:41:54;9.10;99.90
51867;DHT22;52862;52.504;13.480;2024-03-02T02:44:20;9.10;99.90
51867;DHT22;52862;52.504;13.480;2024-03-02T02:46:47;9.10;99.90
51867;DHT22;52862;52.504;13.480;2024-03-02T02:49:14;9.10;99.90
51867;DHT22;52862;52.504;13.480;2024-03-02T02:51:41;9.10;99.90
51867;DHT22;52862;52.504;13.480;2024-03-02T02:54:08;9.10;99.90
51867;DHT22;52862;52.504;13.480;2024-03-02T02:56:35;9.20;99.90
51867;DHT22;52862;52.504;13.480;2024-03-02T02:59:02;9.20;99.90
51867;DHT22;52862;52.504;13.480;2024-03-02T03:01:28;9.20;99.90
51867;DHT22;52862;52.504;13.480;2024-03-02T03:03:55;9.20;99.90
51867;DHT22;52862;52.504;13.480;2024-03-02T03:06:22;9.30;99.90
51867;DHT22;52862;52.504;13.480;2024-03-02T03:08:49;9.20;99.90
51867;DHT22;52862;52.504;13.480;2024-03-02T03:11:15;9.20;99.90
51867;DHT22;52862;52.504;13.480;2024-03-02T03:13:43;9.20;99.90
51867;DHT22;52862;52.504;13.480;2024-03-02T03:16:10;9.20;99.90
51867;DHT22;52862;52.504;13.480;2024-03-02T03:18:36;9.20;99.90
51867;DHT22;52862;52.504;13.480;2024-03-02T03:21:04;9.20;99.90
51867;DHT22;52862;52.504;13.480;2024-03-02T03:23:31;9.20;99.90
51867;DHT22;52862;52.504;13.480;2024-03-02T03:25:58;9.20;99.90
51867;DHT22;52862;52.504;13.480;2024-03-02T03:28:24;9.20;99.90
51867;DHT22;52862;52.504;13.480;2024-03-02T03:30:52;9.30;99.90
51867;DHT22;52862;52.504;13.480;2024-03-02T03:33:18;9.20;99.90
51867;DHT22;52862;52.504;13.480;2024-03-02T03:35:48;9.20;99.90
51867;DHT22;52862;52.504;13.480;2024-03-02T03:38:15;9.30;99.90
51867;DHT22;52862;52.504;13.480;2024-03-02T03:40:41;9.20;99.90
51867;DHT22;52862;52.504;13.480;2024-03-02T03:43:08;9.20;99.90
51867;DHT22;52862;52.504;13.480;2024-03-02T03:45:35;9.20;99.90
51867;DHT22;52862;52.504;13.480;2024-03-02T03:48:02;9.30;99.90
51867;DHT22;52862;52.504;13.480;2024-03-02T03:50:29;9.30;99.90
51867;DHT22;52862;52.504;13.480;2024-03-02T03:52:56;9.30;99.90
51867;DHT22;52862;52.504;13.480;2024-03-02T03:55:22;9.40;99.90
51867;DHT22;52862;52.504;13.480;2024-03-02T03:57:49;9.20;99.90
51867;DHT22;52862;52.504;13.480;2024-03-02T04:00:16;9.30;99.90
51867;DHT22;52862;52.504;13.480;2024-03-02T04:02:43;9.30;99.90
51867;DHT22;52862;52.504;13.480;2024-03-02T04:05:10;9.30;99.90
51867;DHT22;52862;52.504;13.480;2024-03-02T04:07:38;9.40;99.90
51867;DHT22;52862;52.504;13.480;2024-03-02T04:10:08;9.30;99.90
51867;DHT22;52862;52.504;13.480;2024-03-02T04:12:35;9.30;99.90
51867;DHT22;52862;52.504;13.480;2024-03-02T04:15:03;9.30;99.90
51867;DHT22;52862;52.504;13.480;2024-03-02T04:17:31;9.40;99.90
51867;DHT22;52862;52.504;13.480;2024-03-02T04:19:58;9.40;99.90
51867;DHT22;52862;52.504;13.480;2024-03-02T04:22:26;9.40;99.90
51867;DHT22;52862;52.504;13.480;2024-03-02T04:24:53;9.40;99.90
51867;DHT22;52862;52.504;13.480;2024-03-02T04:27:19;9.40;99.90
51867;DHT22;52862;52.504;13.480;2024-03-02T04:29:46;9.40;99.90
51867;DHT22;52862;52.504;13.480;2024-03-02T04:32:13;9.30;99.90
51867;DHT22;52862;52.504;13.480;2024-03-02T04:34:40;9.30;99.90
51867;DHT22;52862;52.504;13.480;2024-03-02T04:37:07;9.40;99.90
51867;DHT22;52862;52.504;13.480;2024-03-02T04:39:35;9.30;99.90
51867;DHT22;52862;52.504;13.480;2024-03-02T04:42:02;9.30;99.90
51867;DHT22;52862;52.504;13.480;2024-03-02T04:44:29;9.40;99.90
51867;DHT22;52862;52.504;13.480;2024-03-02T04:46:55;9.40;99.90
51867;DHT22;52862;52.504;13.480;2024-03-02T04:49:22;9.40;99.90
51867;DHT22;52862;52.504;13.480;2024-03-02T04:51:49;9.40;99.90
51867;DHT22;52862;52.504;13.480;2024-03-02T04:54:16;9.40;99.90
51867;DHT22;52862;52.504;13.480;2024-03-02T04:56:43;9.40;99.90
51867;DHT22;52862;52.504;13.480;2024-03-02T04:59:11;9.40;99.90
51867;DHT22;52862;52.504;13.480;2024-03-02T05:01:37;9.40;99.90
51867;DHT22;52862;52.504;13.480;2024-03-02T05:04:04;9.50;99.90
51867;DHT22;52862;52.504;13.480;2024-03-02T05:06:31;9.40;99.90
51867;DHT22;52862;52.504;13.480;2024-03-02T05:08:58;9.40;99.90
51867;DHT22;52862;52.504;13.480;2024-03-02T05:11:24;9.40;99.90
51867;DHT22;52862;52.504;13.480;2024-03-02T05:14:12;9.50;99.90
51867;DHT22;52862;52.504;13.480;2024-03-02T05:16:39;9.50;99.90
51867;DHT22;52862;52.504;13.480;2024-03-02T05:19:06;9.60;99.90
51867;DHT22;52862;52.504;13.480;2024-03-02T05:21:32;9.50;99.90
51867;DHT22;52862;52.504;13.480;2024-03-02T05:24:00;9.50;99.90
51867;DHT22;52862;52.504;13.480;2024-03-02T05:26:26;9.50;99.90
51867;DHT22;52862;52.504;13.480;2024-03-02T05:28:53;9.50;99.90
51867;DHT22;52862;52.504;13.480;2024-03-02T05:31:20;9.50;99.90
51867;DHT22;52862;52.504;13.480;2024-03-02T05:33:47;9.50;99.90
51867;DHT22;52862;52.504;13.480;2024-03-02T05:36:14;9.50;99.90
51867;DHT22;52862;52.504;13.480;2024-03-02T05:38:41;9.50;99.90
51867;DHT22;52862;52.504;13.480;2024-03-02T05:41:08;9.50;99.90
51867;DHT22;52862;52.504;13.480;2024-03-02T05:43:35;9.50;99.90
51867;DHT22;52862;52.504;13.480;2024-03-02T05:46:03;9.50;99.90
51867;DHT22;52862;52.504;13.480;2024-03-02T05:48:32;9.50;99.90
51867;DHT22;52862;52.504;13.480;2024-03-02T05:50:59;9.50;99.90
51867;DHT22;52862;52.504;13.480;2024-03-02T05:53:25;9.50;99.90
51867;DHT22;52862;52.504;13.480;2024-03-02T05:55:52;9.50;99.90
51867;DHT22;52862;52.504;13.480;2024-03-02T05:58:21;9.40;99.90
51867;DHT22;52862;52.504;13.480;2024-03-02T06:00:58;9.50;99.90
51867;DHT22;52862;52.504;13.480;2024-03-02T06:03:25;9.50;99.90
51867;DHT22;52862;52.504;13.480;2024-03-02T06:05:53;9.50;99.90
51867;DHT22;52862;52.504;13.480;2024-03-02T06:08:20;9.50;99.90
51867;DHT22;52862;52.504;13.480;2024-03-02T06:10:46;9.40;99.90
51867;DHT22;52862;52.504;13.480;2024-03-02T06:13:13;9.60;99.90
51867;DHT22;52862;52.504;13.480;2024-03-02T06:15:40;9.50;99.90
51867;DHT22;52862;52.504;13.480;2024-03-02T06:18:07;9.30;99.90
51867;DHT22;52862;52.504;13.480;2024-03-02T06:20:34;9.30;99.90
51867;DHT22;52862;52.504;13.480;2024-03-02T06:23:04;9.30;99.90
51867;DHT22;52862;52.504;13.480;2024-03-02T06:25:31;9.30;99.90
51867;DHT22;52862;52.504;13.480;2024-03-02T06:27:58;9.20;99.90
51867;DHT22;52862;52.504;13.480;2024-03-02T06:30:25;9.30;99.90
51867;DHT22;52862;52.504;13.480;2024-03-02T06:32:52;9.30;99.90
51867;DHT22;52862;52.504;13.480;2024-03-02T06:35:18;9.30;99.90
51867;DHT22;52862;52.504;13.480;2024-03-02T06:37:45;9.30;99.90
51867;DHT22;52862;52.504;13.480;2024-03-02T06:40:13;9.30;99.90
51867;DHT22;52862;52.504;13.480;2024-03-02T06:42:40;9.40;99.90
51867;DHT22;52862;52.504;13.480;2024-03-02T06:45:06;9.40;99.90
51867;DHT22;52862;52.504;13.480;2024-03-02T06:47:33;9.50;99.90
51867;DHT22;52862;52.504;13.480;2024-03-02T06:50:00;9.50;99.90
51867;DHT22;52862;52.504;13.480;2024-03-02T06:52:27;9.60;99.90
51867;DHT22;52862;52.504;13.480;2024-03-02T06:54:53;9.60;99.90
51867;DHT22;52862;52.504;13.480;2024-03-02T06:57:21;9.60;99.90
51867;DHT22;52862;52.504;13.480;2024-03-02T06:59:48;9.60;99.90
51867;DHT22;52862;52.504;13.480;2024-03-02T07:02:16;9.70;99.90
51867;DHT22;52862;52.504;13.480;2024-03-02T07:04:43;9.70;99.90
51867;DHT22;52862;52.504;13.480;2024-03-02T07:07:10;9.80;99.90
51867;DHT22;52862;52.504;13.480;2024-03-02T07:09:37;9.80;99.90
51867;DHT22;52862;52.504;13.480;2024-03-02T07:12:04;9.60;99.90
51867;DHT22;52862;52.504;13.480;2024-03-02T07:14:32;9.60;99.90
51867;DHT22;52862;52.504;13.480;2024-03-02T07:17:17;9.60;99.90
51867;DHT22;52862;52.504;13.480;2024-03-02T07:19:44;9.60;99.90
51867;DHT22;52862;52.504;13.480;2024-03-02T07:22:12;9.70;99.90
51867;DHT22;52862;52.504;13.480;2024-03-02T07:24:41;9.70;99.90
51867;DHT22;52862;52.504;13.480;2024-03-02T07:27:09;9.80;99.90
51867;DHT22;52862;52.504;13.480;2024-03-02T07:29:36;9.70;99.90
51867;DHT22;52862;52.504;13.480;2024-03-02T07:32:04;9.70;99.90
51867;DHT22;52862;52.504;13.480;2024-03-02T07:34:30;9.70;99.90
51867;DHT22;52862;52.504;13.480;2024-03-02T07:36:58;9.70;99.90
51867;DHT22;52862;52.504;13.480;2024-03-02T07:39:24;9.80;99.90
51867;DHT22;52862;52.504;13.480;2024-03-02T07:41:51;9.70;99.90
51867;DHT22;52862;52.504;13.480;2024-03-02T07:44:18;9.70;99.90
51867;DHT22;52862;52.504;13.480;2024-03-02T07:46:46;9.70;99.90
51867;DHT22;52862;52.504;13.480;2024-03-02T07:49:13;9.60;99.90
51867;DHT22;52862;52.504;13.480;2024-03-02T07:51:40;9.70;99.90
51867;DHT22;52862;52.504;13.480;2024-03-02T07:54:07;9.70;99.90
51867;DHT22;52862;52.504;13.480;2024-03-02T07:56:34;9.70;99.90
51867;DHT22;52862;52.504;13.480;2024-03-02T07:59:01;9.70;99.90
51867;DHT22;52862;52.504;13.480;2024-03-02T08:01:28;9.80;99.90
51867;DHT22;52862;52.504;13.480;2024-03-02T08:03:56;9.80;99.90
51867;DHT22;52862;52.504;13.480;2024-03-02T08:06:24;9.90;99.90
51867;DHT22;52862;52.504;13.480;2024-03-02T08:08:53;9.90;99.90
51867;DHT22;52862;52.504;13.480;2024-03-02T08:11:20;9.90;99.90
51867;DHT22;52862;52.504;13.480;2024-03-02T08:13:47;9.90;99.90
51867;DHT22;52862;52.504;13.480;2024-03-02T08:16:15;9.90;99.90
51867;DHT22;52862;52.504;13.480;2024-03-02T08:18:42;10.00;99.90
51867;DHT22;52862;52.504;13.480;2024-03-02T08:21:09;10.00;99.90
51867;DHT22;52862;52.504;13.480;2024-03-02T08:23:36;10.10;99.90
51867;DHT22;52862;52.504;13.480;2024-03-02T08:26:03;10.00;99.90
51867;DHT22;52862;52.504;13.480;2024-03-02T08:28:30;10.00;99.90
51867;DHT22;52862;52.504;13.480;2024-03-02T08:30:57;9.90;99.90
51867;DHT22;52862;52.504;13.480;2024-03-02T08:33:24;10.00;99.90
51867;DHT22;52862;52.504;13.480;2024-03-02T08:35:51;10.00;99.90
51867;DHT22;52862;52.504;13.480;2024-03-02T08:38:18;9.90;99.90
51867;DHT22;52862;52.504;13.480;2024-03-02T08:40:45;10.00;99.90
51867;DHT22;52862;52.504;13.480;2024-03-02T08:43:13;10.10;99.90
51867;DHT22;52862;52.504;13.480;2024-03-02T08:45:40;10.10;99.90
51867;DHT22;52862;52.504;13.480;2024-03-02T08:48:08;10.20;99.90
51867;DHT22;52862;52.504;13.480;2024-03-02T08:50:35;10.10;99.90
51867;DHT22;52862;52.504;13.480;2024-03-02T08:53:02;10.20;99.90
51867;DHT22;52862;52.504;13.480;2024-03-02T08:55:30;10.10;99.90
51867;DHT22;52862;52.504;13.480;2024-03-02T08:57:57;10.20;99.90
51867;DHT22;52862;52.504;13.480;2024-03-02T09:00:24;10.10;99.90
51867;DHT22;52862;52.504;13.480;2024-03-02T09:02:51;10.10;99.90
51867;DHT22;52862;52.504;13.480;2024-03-02T09:05:17;10.10;99.90
51867;DHT22;52862;52.504;13.480;2024-03-02T09:07:44;10.20;99.90
51867;DHT22;52862;52.504;13.480;2024-03-02T09:10:11;10.20;99.90
51867;DHT22;52862;52.504;13.480;2024-03-02T09:12:38;10.10;99.90
51867;DHT22;52862;52.504;13.480;2024-03-02T09:15:06;10.60;99.90
51867;DHT22;52862;52.504;13.480;2024-03-02T09:17:33;10.40;99.90
51867;DHT22;52862;52.504;13.480;2024-03-02T09:20:00;10.60;99.90
51867;DHT22;52862;52.504;13.480;2024-03-02T09:22:26;10.40;99.90
51867;DHT22;52862;52.504;13.480;2024-03-02T09:24:53;10.40;99.90
51867;DHT22;52862;52.504;13.480;2024-03-02T09:27:20;10.40;99.90
51867;DHT22;52862;52.504;13.480;2024-03-02T09:29:48;10.40;99.90
51867;DHT22;52862;52.504;13.480;2024-03-02T09:32:15;10.50;99.90
51867;DHT22;52862;52.504;13.480;2024-03-02T09:34:41;10.60;99.90
51867;DHT22;52862;52.504;13.480;2024-03-02T09:37:09;10.80;99.90
51867;DHT22;52862;52.504;13.480;2024-03-02T09:39:36;11.00;99.90
51867;DHT22;52862;52.504;13.480;2024-03-02T09:42:04;11.10;99.90
51867;DHT22;52862;52.504;13.480;2024-03-02T09:44:32;11.20;99.90
51867;DHT22;52862;52.504;13.480;2024-03-02T09:47:00;11.10;99.90
51867;DHT22;52862;52.504;13.480;2024-03-02T09:49:27;11.30;99.90
51867;DHT22;52862;52.504;13.480;2024-03-02T09:51:54;11.20;99.90
51867;DHT22;52862;52.504;13.480;2024-03-02T09:54:22;11.20;99.90
51867;DHT22;52862;52.504;13.480;2024-03-02T09:56:50;11.40;99.90
51867;DHT22;52862;52.504;13.480;2024-03-02T09:59:18;11.30;99.90
51867;DHT22;52862;52.504;13.480;2024-03-02T10:02:00;11.80;99.90
51867;DHT22;52862;52.504;13.480;2024-03-02T10:04:28;11.80;99.90
51867;DHT22;52862;52.504;13.480;2024-03-02T10:07:13;11.80;99.90
51867;DHT22;52862;52.504;13.480;2024-03-02T10:09:40;11.90;99.90
51867;DHT22;52862;52.504;13.480;2024-03-02T10:12:08;11.80;99.90
51867;DHT22;52862;52.504;13.480;2024-03-02T10:14:35;11.90;99.90
51867;DHT22;52862;52.504;13.480;2024-03-02T10:17:04;12.10;99.90
51867;DHT22;52862;52.504;13.480;2024-03-02T10:19:31;12.20;99.90
51867;DHT22;52862;52.504;13.480;2024-03-02T10:21:59;12.40;99.90
51867;DHT22;52862;52.504;13.480;2024-03-02T10:24:35;12.30;99.90
51867;DHT22;52862;52.504;13.480;2024-03-02T10:27:07;12.60;99.90
51867;DHT22;52862;52.504;13.480;2024-03-02T10:29:37;12.50;99.90
51867;DHT22;52862;52.504;13.480;2024-03-02T10:32:06;12.40;99.90
51867;DHT22;52862;52.504;13.480;2024-03-02T10:34:35;12.50;99.90
51867;DHT22;52862;52.504;13.480;2024-03-02T10:37:03;12.40;99.90
51867;DHT22;52862;52.504;13.480;2024-03-02T10:39:32;12.80;99.90
51867;DHT22;52862;52.504;13.480;2024-03-02T10:42:02;12.70;99.90
51867;DHT22;52862;52.504;13.480;2024-03-02T10:44:30;12.80;99.90
51867;DHT22;52862;52.504;13.480;2024-03-02T10:47:00;12.70;99.90
51867;DHT22;52862;52.504;13.480;2024-03-02T10:49:27;12.60;99.90
51867;DHT22;52862;52.504;13.480;2024-03-02T10:51:55;12.80;99.90
51867;DHT22;52862;52.504;13.480;2024-03-02T10:54:22;12.80;99.90
51867;DHT22;52862;52.504;13.480;2024-03-02T10:56:53;12.70;99.90
51867;DHT22;52862;52.504;13.480;2024-03-02T10:59:26;12.70;99.90
51867;DHT22;52862;52.504;13.480;2024-03-02T11:01:56;12.80;99.90
51867;DHT22;52862;52.504;13.480;2024-03-02T11:04:30;12.80;99.90
51867;DHT22;52862;52.504;13.480;2024-03-02T11:07:00;13.10;99.90
51867;DHT22;52862;52.504;13.480;2024-03-02T11:09:29;13.20;99.90
51867;DHT22;52862;52.504;13.480;2024-03-02T11:12:02;13.10;99.90
51867;DHT22;52862;52.504;13.480;2024-03-02T11:14:31;13.20;99.90
51867;DHT22;52862;52.504;13.480;2024-03-02T11:16:59;13.30;99.90
51867;DHT22;52862;52.504;13.480;2024-03-02T11:19:28;13.40;99.90
51867;DHT22;52862;52.504;13.480;2024-03-02T11:21:55;13.40;99.90
51867;DHT22;52862;52.504;13.480;2024-03-02T11:24:30;13.30;99.90
51867;DHT22;52862;52.504;13.480;2024-03-02T11:27:04;13.40;99.90
51867;DHT22;52862;52.504;13.480;2024-03-02T11:29:44;13.60;99.90
51867;DHT22;52862;52.504;13.480;2024-03-02T11:32:18;13.60;99.90
51867;DHT22;52862;52.504;13.480;2024-03-02T11:34:49;13.60;99.90
51867;DHT22;52862;52.504;13.480;2024-03-02T11:37:17;13.80;99.90
51867;DHT22;52862;52.504;13.480;2024-03-02T11:39:44;13.80;99.90
51867;DHT22;52862;52.504;13.480;2024-03-02T11:42:12;13.90;99.90
51867;DHT22;52862;52.504;13.480;2024-03-02T11:44:42;14.00;99.90
51867;DHT22;52862;52.504;13.480;2024-03-02T11:47:12;14.30;99.90
51867;DHT22;52862;52.504;13.480;2024-03-02T11:49:41;14.30;99.90
51867;DHT22;52862;52.504;13.480;2024-03-02T11:52:10;14.60;99.90
51867;DHT22;52862;52.504;13.480;2024-03-02T11:54:38;14.60;99.90
51867;DHT22;52862;52.504;13.480;2024-03-02T11:57:06;14.60;99.90
51867;DHT22;52862;52.504;13.480;2024-03-02T11:59:33;14.40;99.90
51867;DHT22;52862;52.504;13.480;2024-03-02T12:02:01;14.40;99.90
51867;DHT22;52862;52.504;13.480;2024-03-02T12:04:30;14.10;99.90
51867;DHT22;52862;52.504;13.480;2024-03-02T12:06:59;14.30;99.90
51867;DHT22;52862;52.504;13.480;2024-03-02T12:09:27;14.30;99.90
51867;DHT22;52862;52.504;13.480;2024-03-02T12:12:04;14.60;99.90
51867;DHT22;52862;52.504;13.480;2024-03-02T12:14:31;14.90;99.90
51867;DHT22;52862;52.504;13.480;2024-03-02T12:16:58;15.10;99.90
51867;DHT22;52862;52.504;13.480;2024-03-02T12:19:26;15.40;99.90
51867;DHT22;52862;52.504;13.480;2024-03-02T12:21:53;15.90;99.90
51867;DHT22;52862;52.504;13.480;2024-03-02T12:24:21;15.90;99.90
51867;DHT22;52862;52.504;13.480;2024-03-02T12:26:49;16.00;99.90
51867;DHT22;52862;52.504;13.480;2024-03-02T12:29:16;16.10;99.90
51867;DHT22;52862;52.504;13.480;2024-03-02T12:31:44;15.80;99.90
51867;DHT22;52862;52.504;13.480;2024-03-02T12:34:12;16.10;99.90
51867;DHT22;52862;52.504;13.480;2024-03-02T12:36:40;16.30;99.90
51867;DHT22;52862;52.504;13.480;2024-03-02T12:39:08;16.20;99.90
51867;DHT22;52862;52.504;13.480;2024-03-02T12:41:36;15.90;99.90
51867;DHT22;52862;52.504;13.480;2024-03-02T12:44:04;15.70;99.90
51867;DHT22;52862;52.504;13.480;2024-03-02T12:46:31;15.60;99.90
51867;DHT22;52862;52.504;13.480;2024-03-02T12:48:58;16.00;99.90
51867;DHT22;52862;52.504;13.480;2024-03-02T12:51:27;16.70;99.90
51867;DHT22;52862;52.504;13.480;2024-03-02T12:53:54;16.50;99.90
51867;DHT22;52862;52.504;13.480;2024-03-02T12:56:21;17.70;99.90
51867;DHT22;52862;52.504;13.480;2024-03-02T12:58:53;18.10;99.90
51867;DHT22;52862;52.504;13.480;2024-03-02T13:01:20;18.20;99.90
51867;DHT22;52862;52.504;13.480;2024-03-02T13:03:48;17.80;99.90
51867;DHT22;52862;52.504;13.480;2024-03-02T13:06:17;18.10;99.90
51867;DHT22;52862;52.504;13.480;2024-03-02T13:08:45;18.10;99.90
51867;DHT22;52862;52.504;13.480;2024-03-02T13:11:12;17.70;99.90
51867;DHT22;52862;52.504;13.480;2024-03-02T13:13:40;17.60;99.90
51867;DHT22;52862;52.504;13.480;2024-03-02T13:16:08;17.60;99.90
51867;DHT22;52862;52.504;13.480;2024-03-02T13:18:38;17.90;99.90
51867;DHT22;52862;52.504;13.480;2024-03-02T13:21:04;18.60;99.90
51867;DHT22;52862;52.504;13.480;2024-03-02T13:23:31;21.00;99.90
51867;DHT22;52862;52.504;13.480;2024-03-02T13:25:58;23.90;99.90
51867;DHT22;52862;52.504;13.480;2024-03-02T13:28:25;25.00;95.40
51867;DHT22;52862;52.504;13.480;2024-03-02T13:30:52;25.70;93.60
51867;DHT22;52862;52.504;13.480;2024-03-02T13:33:19;26.00;91.80
51867;DHT22;52862;52.504;13.480;2024-03-02T13:35:49;25.90;91.30
51867;DHT22;52862;52.504;13.480;2024-03-02T13:38:16;24.00;93.70
51867;DHT22;52862;52.504;13.480;2024-03-02T13:40:43;22.90;94.80
51867;DHT22;52862;52.504;13.480;2024-03-02T13:43:10;22.90;95.10
51867;DHT22;52862;52.504;13.480;2024-03-02T13:45:38;23.60;94.20
51867;DHT22;52862;52.504;13.480;2024-03-02T13:48:05;23.50;94.20
51867;DHT22;52862;52.504;13.480;2024-03-02T13:50:32;23.30;93.70
51867;DHT22;52862;52.504;13.480;2024-03-02T13:52:59;23.90;93.80
51867;DHT22;52862;52.504;13.480;2024-03-02T13:55:26;24.40;92.40
51867;DHT22;52862;52.504;13.480;2024-03-02T13:57:53;24.90;91.50
51867;DHT22;52862;52.504;13.480;2024-03-02T14:00:20;25.40;90.70
51867;DHT22;52862;52.504;13.480;2024-03-02T14:02:46;25.70;89.20
51867;DHT22;52862;52.504;13.480;2024-03-02T14:05:15;26.50;88.10
51867;DHT22;52862;52.504;13.480;2024-03-02T14:07:42;26.50;86.90
51867;DHT22;52862;52.504;13.480;2024-03-02T14:10:10;27.20;86.80
51867;DHT22;52862;52.504;13.480;2024-03-02T14:12:37;26.30;86.60
51867;DHT22;52862;52.504;13.480;2024-03-02T14:15:05;25.80;86.90
51867;DHT22;52862;52.504;13.480;2024-03-02T14:17:32;24.50;89.10
51867;DHT22;52862;52.504;13.480;2024-03-02T14:20:00;23.80;90.10
51867;DHT22;52862;52.504;13.480;2024-03-02T14:22:27;23.70;90.20
51867;DHT22;52862;52.504;13.480;2024-03-02T14:24:53;23.20;90.70
51867;DHT22;52862;52.504;13.480;2024-03-02T14:27:21;22.70;91.20
51867;DHT22;52862;52.504;13.480;2024-03-02T14:30:05;22.30;92.20
51867;DHT22;52862;52.504;13.480;2024-03-02T14:32:33;22.30;92.60
51867;DHT22;52862;52.504;13.480;2024-03-02T14:34:59;21.80;92.90
51867;DHT22;52862;52.504;13.480;2024-03-02T14:37:26;21.80;93.10
51867;DHT22;52862;52.504;13.480;2024-03-02T14:39:53;21.50;93.60
51867;DHT22;52862;52.504;13.480;2024-03-02T14:42:22;21.80;94.50
51867;DHT22;52862;52.504;13.480;2024-03-02T14:44:48;21.70;94.20
51867;DHT22;52862;52.504;13.480;2024-03-02T14:47:15;21.10;94.80
51867;DHT22;52862;52.504;13.480;2024-03-02T14:49:43;20.00;96.50
51867;DHT22;52862;52.504;13.480;2024-03-02T14:52:10;19.40;98.20
51867;DHT22;52862;52.504;13.480;2024-03-02T14:54:37;18.90;99.50
51867;DHT22;52862;52.504;13.480;2024-03-02T14:57:04;18.50;99.90
51867;DHT22;52862;52.504;13.480;2024-03-02T14:59:33;18.00;99.90
51867;DHT22;52862;52.504;13.480;2024-03-02T15:02:00;17.60;99.90
51867;DHT22;52862;52.504;13.480;2024-03-02T15:04:27;17.20;99.90
51867;DHT22;52862;52.504;13.480;2024-03-02T15:06:54;16.70;99.90
51867;DHT22;52862;52.504;13.480;2024-03-02T15:09:20;16.20;99.90
51867;DHT22;52862;52.504;13.480;2024-03-02T15:11:47;16.00;99.90
51867;DHT22;52862;52.504;13.480;2024-03-02T15:14:14;15.70;99.90
51867;DHT22;52862;52.504;13.480;2024-03-02T15:16:42;15.60;99.90
51867;DHT22;52862;52.504;13.480;2024-03-02T15:19:08;15.50;99.90
51867;DHT22;52862;52.504;13.480;2024-03-02T15:21:35;15.40;99.90
51867;DHT22;52862;52.504;13.480;2024-03-02T15:24:02;15.40;99.90
51867;DHT22;52862;52.504;13.480;2024-03-02T15:26:30;15.10;99.90
51867;DHT22;52862;52.504;13.480;2024-03-02T15:28:57;14.80;99.90
51867;DHT22;52862;52.504;13.480;2024-03-02T15:31:25;14.80;99.90